sensor_id;sensor_type;location;lat;lon;timestamp;P1;durP1;ratioP1;P2;durP2;ratioP2
69900;SDS011;57183;50.930;5.406;2023-07-29T00:01:27;3.35;;;1.42;;
69900;SDS011;57183;50.930;5.406;2023-07-29T00:03:52;1.58;;;1.25;;
69900;SDS011;57183;50.930;5.406;2023-07-29T00:06:18;1.25;;;1.15;;
69900;SDS011;57183;50.930;5.406;2023-07-29T00:08:44;2.40;;;1.23;;
69900;SDS011;57183;50.930;5.406;2023-07-29T00:11:09;2.05;;;1.50;;
69900;SDS011;57183;50.930;5.406;2023-07-29T00:13:35;4.45;;;1.75;;
69900;SDS011;57183;50.930;5.406;2023-07-29T00:16:00;3.55;;;1.17;;
69900;SDS011;57183;50.930;5.406;2023-07-29T00:18:26;1.55;;;1.10;;
69900;SDS011;57183;50.930;5.406;2023-07-29T00:20:52;3.28;;;1.55;;
69900;SDS011;57183;50.930;5.406;2023-07-29T00:23:18;3.25;;;1.27;;
69900;SDS011;57183;50.930;5.406;2023-07-29T00:25:44;3.72;;;1.70;;
69900;SDS011;57183;50.930;5.406;2023-07-29T00:28:11;1.42;;;1.02;;
69900;SDS011;57183;50.930;5.406;2023-07-29T00:30:37;4.03;;;1.98;;
69900;SDS011;57183;50.930;5.406;2023-07-29T00:33:02;2.47;;;1.50;;
69900;SDS011;57183;50.930;5.406;2023-07-29T00:35:28;1.83;;;1.70;;
69900;SDS011;57183;50.930;5.406;2023-07-29T00:37:54;1.73;;;1.38;;
69900;SDS011;57183;50.930;5.406;2023-07-29T00:40:20;1.77;;;1.67;;
69900;SDS011;57183;50.930;5.406;2023-07-29T00:42:46;2.30;;;1.45;;
69900;SDS011;57183;50.930;5.406;2023-07-29T00:45:12;2.08;;;1.63;;
69900;SDS011;57183;50.930;5.406;2023-07-29T00:47:38;2.15;;;1.85;;
69900;SDS011;57183;50.930;5.406;2023-07-29T00:50:05;8.40;;;1.75;;
69900;SDS011;57183;50.930;5.406;2023-07-29T00:52:32;1.65;;;1.50;;
69900;SDS011;57183;50.930;5.406;2023-07-29T00:54:58;4.75;;;1.75;;
69900;SDS011;57183;50.930;5.406;2023-07-29T00:57:23;1.95;;;1.58;;
69900;SDS011;57183;50.930;5.406;2023-07-29T00:59:50;5.35;;;1.77;;
69900;SDS011;57183;50.930;5.406;2023-07-29T01:02:16;3.35;;;2.00;;
69900;SDS011;57183;50.930;5.406;2023-07-29T01:04:42;5.80;;;1.90;;
69900;SDS011;57183;50.930;5.406;2023-07-29T01:07:21;5.00;;;1.60;;
69900;SDS011;57183;50.930;5.406;2023-07-29T01:12:31;2.17;;;1.98;;
69900;SDS011;57183;50.930;5.406;2023-07-29T01:15:11;2.03;;;1.83;;
69900;SDS011;57183;50.930;5.406;2023-07-29T01:17:55;2.25;;;1.73;;
69900;SDS011;57183;50.930;5.406;2023-07-29T01:20:24;2.28;;;2.00;;
69900;SDS011;57183;50.930;5.406;2023-07-29T01:22:51;2.42;;;1.70;;
69900;SDS011;57183;50.930;5.406;2023-07-29T01:25:16;5.57;;;1.85;;
69900;SDS011;57183;50.930;5.406;2023-07-29T01:27:44;4.53;;;2.33;;
69900;SDS011;57183;50.930;5.406;2023-07-29T01:30:11;3.53;;;1.83;;
69900;SDS011;57183;50.930;5.406;2023-07-29T01:32:44;2.25;;;1.73;;
69900;SDS011;57183;50.930;5.406;2023-07-29T01:35:24;2.47;;;1.63;;
69900;SDS011;57183;50.930;5.406;2023-07-29T01:37:59;2.60;;;1.80;;
69900;SDS011;57183;50.930;5.406;2023-07-29T01:40:30;3.10;;;2.13;;
69900;SDS011;57183;50.930;5.406;2023-07-29T01:42:56;2.45;;;2.22;;
69900;SDS011;57183;50.930;5.406;2023-07-29T01:45:25;3.42;;;2.15;;
69900;SDS011;57183;50.930;5.406;2023-07-29T01:47:51;2.65;;;2.30;;
69900;SDS011;57183;50.930;5.406;2023-07-29T01:50:17;3.13;;;2.65;;
69900;SDS011;57183;50.930;5.406;2023-07-29T01:52:43;5.75;;;2.63;;
69900;SDS011;57183;50.930;5.406;2023-07-29T01:55:08;2.42;;;2.03;;
69900;SDS011;57183;50.930;5.406;2023-07-29T01:57:34;4.00;;;1.90;;
69900;SDS011;57183;50.930;5.406;2023-07-29T01:59:59;2.00;;;1.42;;
69900;SDS011;57183;50.930;5.406;2023-07-29T02:02:25;6.40;;;1.77;;
69900;SDS011;57183;50.930;5.406;2023-07-29T02:04:51;3.92;;;2.75;;
69900;SDS011;57183;50.930;5.406;2023-07-29T02:07:18;2.85;;;2.08;;
69900;SDS011;57183;50.930;5.406;2023-07-29T02:09:44;4.18;;;1.60;;
69900;SDS011;57183;50.930;5.406;2023-07-29T02:12:10;5.55;;;1.90;;
69900;SDS011;57183;50.930;5.406;2023-07-29T02:14:35;3.38;;;1.63;;
69900;SDS011;57183;50.930;5.406;2023-07-29T02:17:01;1.98;;;1.83;;
69900;SDS011;57183;50.930;5.406;2023-07-29T02:19:27;3.40;;;1.73;;
69900;SDS011;57183;50.930;5.406;2023-07-29T02:21:52;2.35;;;1.52;;
69900;SDS011;57183;50.930;5.406;2023-07-29T02:24:18;4.50;;;1.83;;
69900;SDS011;57183;50.930;5.406;2023-07-29T02:26:44;1.70;;;1.60;;
69900;SDS011;57183;50.930;5.406;2023-07-29T02:29:10;6.43;;;1.67;;
69900;SDS011;57183;50.930;5.406;2023-07-29T02:31:35;2.70;;;1.65;;
69900;SDS011;57183;50.930;5.406;2023-07-29T02:34:02;1.75;;;1.30;;
69900;SDS011;57183;50.930;5.406;2023-07-29T02:36:28;5.60;;;1.40;;
69900;SDS011;57183;50.930;5.406;2023-07-29T02:38:54;2.20;;;1.23;;
69900;SDS011;57183;50.930;5.406;2023-07-29T02:41:20;1.73;;;1.00;;
69900;SDS011;57183;50.930;5.406;2023-07-29T02:43:48;1.50;;;1.20;;
69900;SDS011;57183;50.930;5.406;2023-07-29T02:46:15;5.85;;;1.17;;
69900;SDS011;57183;50.930;5.406;2023-07-29T02:48:41;2.25;;;1.13;;
69900;SDS011;57183;50.930;5.406;2023-07-29T02:51:07;1.52;;;1.00;;
69900;SDS011;57183;50.930;5.406;2023-07-29T02:53:33;1.10;;;0.90;;
69900;SDS011;57183;50.930;5.406;2023-07-29T02:56:01;1.08;;;0.80;;
69900;SDS011;57183;50.930;5.406;2023-07-29T02:58:28;3.17;;;1.30;;
69900;SDS011;57183;50.930;5.406;2023-07-29T03:00:59;1.55;;;1.08;;
69900;SDS011;57183;50.930;5.406;2023-07-29T03:03:27;1.42;;;1.23;;
69900;SDS011;57183;50.930;5.406;2023-07-29T03:06:03;2.03;;;1.33;;
69900;SDS011;57183;50.930;5.406;2023-07-29T03:08:34;2.35;;;0.93;;
69900;SDS011;57183;50.930;5.406;2023-07-29T03:11:19;6.57;;;1.48;;
69900;SDS011;57183;50.930;5.406;2023-07-29T03:13:45;2.30;;;1.00;;
69900;SDS011;57183;50.930;5.406;2023-07-29T03:16:14;2.17;;;1.00;;
69900;SDS011;57183;50.930;5.406;2023-07-29T03:18:41;1.25;;;0.90;;
69900;SDS011;57183;50.930;5.406;2023-07-29T03:21:08;8.13;;;1.55;;
69900;SDS011;57183;50.930;5.406;2023-07-29T03:23:34;1.35;;;1.23;;
69900;SDS011;57183;50.930;5.406;2023-07-29T03:26:00;2.17;;;1.58;;
69900;SDS011;57183;50.930;5.406;2023-07-29T03:28:29;2.50;;;0.70;;
69900;SDS011;57183;50.930;5.406;2023-07-29T03:30:57;3.33;;;1.20;;
69900;SDS011;57183;50.930;5.406;2023-07-29T03:33:23;1.45;;;0.90;;
69900;SDS011;57183;50.930;5.406;2023-07-29T03:35:50;6.88;;;0.95;;
69900;SDS011;57183;50.930;5.406;2023-07-29T03:38:16;2.88;;;1.13;;
69900;SDS011;57183;50.930;5.406;2023-07-29T03:40:42;1.63;;;0.82;;
69900;SDS011;57183;50.930;5.406;2023-07-29T03:43:07;1.27;;;0.70;;
69900;SDS011;57183;50.930;5.406;2023-07-29T03:45:34;1.00;;;0.80;;
69900;SDS011;57183;50.930;5.406;2023-07-29T03:48:00;4.38;;;0.80;;
69900;SDS011;57183;50.930;5.406;2023-07-29T03:50:28;1.80;;;0.82;;
69900;SDS011;57183;50.930;5.406;2023-07-29T03:52:54;3.38;;;0.90;;
69900;SDS011;57183;50.930;5.406;2023-07-29T03:55:20;1.80;;;0.90;;
69900;SDS011;57183;50.930;5.406;2023-07-29T03:57:46;1.70;;;0.70;;
69900;SDS011;57183;50.930;5.406;2023-07-29T04:00:12;3.20;;;1.10;;
69900;SDS011;57183;50.930;5.406;2023-07-29T04:02:38;3.13;;;0.80;;
69900;SDS011;57183;50.930;5.406;2023-07-29T04:05:04;1.25;;;0.90;;
69900;SDS011;57183;50.930;5.406;2023-07-29T04:07:33;5.20;;;0.90;;
69900;SDS011;57183;50.930;5.406;2023-07-29T04:09:59;1.10;;;0.88;;
69900;SDS011;57183;50.930;5.406;2023-07-29T04:12:26;2.15;;;0.88;;
69900;SDS011;57183;50.930;5.406;2023-07-29T04:14:51;2.25;;;1.08;;
69900;SDS011;57183;50.930;5.406;2023-07-29T04:17:17;0.93;;;0.88;;
69900;SDS011;57183;50.930;5.406;2023-07-29T04:19:43;6.30;;;0.93;;
69900;SDS011;57183;50.930;5.406;2023-07-29T04:22:09;1.15;;;1.00;;
69900;SDS011;57183;50.930;5.406;2023-07-29T04:24:34;1.67;;;1.20;;
69900;SDS011;57183;50.930;5.406;2023-07-29T04:27:00;1.50;;;1.20;;
69900;SDS011;57183;50.930;5.406;2023-07-29T04:29:26;2.85;;;1.38;;
69900;SDS011;57183;50.930;5.406;2023-07-29T04:31:51;1.48;;;1.30;;
69900;SDS011;57183;50.930;5.406;2023-07-29T04:34:18;2.05;;;1.08;;
69900;SDS011;57183;50.930;5.406;2023-07-29T04:36:44;2.90;;;1.23;;
69900;SDS011;57183;50.930;5.406;2023-07-29T04:39:10;1.65;;;1.15;;
69900;SDS011;57183;50.930;5.406;2023-07-29T04:41:36;4.82;;;1.42;;
69900;SDS011;57183;50.930;5.406;2023-07-29T04:44:01;1.80;;;1.27;;
69900;SDS011;57183;50.930;5.406;2023-07-29T04:46:27;1.25;;;1.13;;
69900;SDS011;57183;50.930;5.406;2023-07-29T04:48:53;2.63;;;1.45;;
69900;SDS011;57183;50.930;5.406;2023-07-29T04:51:18;1.40;;;0.90;;
69900;SDS011;57183;50.930;5.406;2023-07-29T04:53:44;2.05;;;1.40;;
69900;SDS011;57183;50.930;5.406;2023-07-29T04:56:10;1.95;;;1.20;;
69900;SDS011;57183;50.930;5.406;2023-07-29T04:58:36;2.47;;;1.02;;
69900;SDS011;57183;50.930;5.406;2023-07-29T05:01:02;1.73;;;0.95;;
69900;SDS011;57183;50.930;5.406;2023-07-29T05:03:28;2.83;;;1.48;;
69900;SDS011;57183;50.930;5.406;2023-07-29T05:05:54;6.65;;;1.17;;
69900;SDS011;57183;50.930;5.406;2023-07-29T05:08:21;3.75;;;1.35;;
69900;SDS011;57183;50.930;5.406;2023-07-29T05:10:53;2.60;;;1.52;;
69900;SDS011;57183;50.930;5.406;2023-07-29T05:13:19;2.25;;;1.70;;
69900;SDS011;57183;50.930;5.406;2023-07-29T05:15:47;5.00;;;1.25;;
69900;SDS011;57183;50.930;5.406;2023-07-29T05:18:13;3.90;;;1.42;;
69900;SDS011;57183;50.930;5.406;2023-07-29T05:20:39;3.05;;;1.10;;
69900;SDS011;57183;50.930;5.406;2023-07-29T05:23:05;2.10;;;1.50;;
69900;SDS011;57183;50.930;5.406;2023-07-29T05:25:30;1.90;;;1.27;;
69900;SDS011;57183;50.930;5.406;2023-07-29T05:27:56;1.95;;;1.10;;
69900;SDS011;57183;50.930;5.406;2023-07-29T05:30:22;3.25;;;1.30;;
69900;SDS011;57183;50.930;5.406;2023-07-29T05:32:48;2.60;;;1.08;;
69900;SDS011;57183;50.930;5.406;2023-07-29T05:35:13;1.02;;;0.93;;
69900;SDS011;57183;50.930;5.406;2023-07-29T05:37:40;5.03;;;1.90;;
69900;SDS011;57183;50.930;5.406;2023-07-29T05:40:06;1.90;;;0.98;;
69900;SDS011;57183;50.930;5.406;2023-07-29T05:42:33;5.05;;;0.93;;
69900;SDS011;57183;50.930;5.406;2023-07-29T05:44:59;2.63;;;1.35;;
69900;SDS011;57183;50.930;5.406;2023-07-29T05:47:25;2.25;;;1.33;;
69900;SDS011;57183;50.930;5.406;2023-07-29T05:49:52;1.63;;;1.20;;
69900;SDS011;57183;50.930;5.406;2023-07-29T05:52:18;1.77;;;1.20;;
69900;SDS011;57183;50.930;5.406;2023-07-29T05:54:43;4.18;;;1.10;;
69900;SDS011;57183;50.930;5.406;2023-07-29T05:57:10;1.67;;;0.95;;
69900;SDS011;57183;50.930;5.406;2023-07-29T05:59:38;1.92;;;1.00;;
69900;SDS011;57183;50.930;5.406;2023-07-29T06:02:04;0.95;;;0.90;;
69900;SDS011;57183;50.930;5.406;2023-07-29T06:04:30;1.42;;;0.90;;
69900;SDS011;57183;50.930;5.406;2023-07-29T06:06:55;1.33;;;0.80;;
69900;SDS011;57183;50.930;5.406;2023-07-29T06:09:22;2.53;;;1.15;;
69900;SDS011;57183;50.930;5.406;2023-07-29T06:11:48;4.35;;;1.38;;
69900;SDS011;57183;50.930;5.406;2023-07-29T06:14:13;2.15;;;1.15;;
69900;SDS011;57183;50.930;5.406;2023-07-29T06:16:39;2.42;;;1.00;;
69900;SDS011;57183;50.930;5.406;2023-07-29T06:19:04;1.15;;;1.00;;
69900;SDS011;57183;50.930;5.406;2023-07-29T06:21:30;2.65;;;1.00;;
69900;SDS011;57183;50.930;5.406;2023-07-29T06:23:56;2.35;;;0.88;;
69900;SDS011;57183;50.930;5.406;2023-07-29T06:26:22;3.15;;;1.10;;
69900;SDS011;57183;50.930;5.406;2023-07-29T06:28:47;2.85;;;1.25;;
69900;SDS011;57183;50.930;5.406;2023-07-29T06:31:13;1.48;;;0.90;;
69900;SDS011;57183;50.930;5.406;2023-07-29T06:33:39;3.95;;;1.00;;
69900;SDS011;57183;50.930;5.406;2023-07-29T06:36:05;2.15;;;0.98;;
69900;SDS011;57183;50.930;5.406;2023-07-29T06:38:31;2.03;;;1.45;;
69900;SDS011;57183;50.930;5.406;2023-07-29T06:40:56;5.90;;;1.70;;
69900;SDS011;57183;50.930;5.406;2023-07-29T06:43:22;4.05;;;1.15;;
69900;SDS011;57183;50.930;5.406;2023-07-29T06:45:48;1.25;;;1.05;;
69900;SDS011;57183;50.930;5.406;2023-07-29T06:48:13;1.92;;;1.05;;
69900;SDS011;57183;50.930;5.406;2023-07-29T06:50:39;3.55;;;1.48;;
69900;SDS011;57183;50.930;5.406;2023-07-29T06:53:05;2.38;;;1.15;;
69900;SDS011;57183;50.930;5.406;2023-07-29T06:55:31;1.35;;;1.00;;
69900;SDS011;57183;50.930;5.406;2023-07-29T06:57:57;1.58;;;0.93;;
69900;SDS011;57183;50.930;5.406;2023-07-29T07:00:22;1.38;;;0.80;;
69900;SDS011;57183;50.930;5.406;2023-07-29T07:02:48;1.25;;;0.82;;
69900;SDS011;57183;50.930;5.406;2023-07-29T07:05:14;1.52;;;0.95;;
69900;SDS011;57183;50.930;5.406;2023-07-29T07:07:40;4.05;;;0.85;;
69900;SDS011;57183;50.930;5.406;2023-07-29T07:10:06;4.60;;;1.30;;
69900;SDS011;57183;50.930;5.406;2023-07-29T07:12:31;1.90;;;0.82;;
69900;SDS011;57183;50.930;5.406;2023-07-29T07:14:57;1.33;;;0.90;;
69900;SDS011;57183;50.930;5.406;2023-07-29T07:17:23;2.50;;;0.57;;
69900;SDS011;57183;50.930;5.406;2023-07-29T07:19:48;0.88;;;0.63;;
69900;SDS011;57183;50.930;5.406;2023-07-29T07:22:15;2.38;;;0.60;;
69900;SDS011;57183;50.930;5.406;2023-07-29T07:24:41;0.70;;;0.57;;
69900;SDS011;57183;50.930;5.406;2023-07-29T07:27:07;1.23;;;0.68;;
69900;SDS011;57183;50.930;5.406;2023-07-29T07:29:32;2.70;;;0.80;;
69900;SDS011;57183;50.930;5.406;2023-07-29T07:31:58;1.17;;;0.50;;
69900;SDS011;57183;50.930;5.406;2023-07-29T07:34:24;1.58;;;0.77;;
69900;SDS011;57183;50.930;5.406;2023-07-29T07:36:50;1.00;;;0.60;;
69900;SDS011;57183;50.930;5.406;2023-07-29T07:39:16;0.90;;;0.70;;
69900;SDS011;57183;50.930;5.406;2023-07-29T07:41:41;4.25;;;0.70;;
69900;SDS011;57183;50.930;5.406;2023-07-29T07:44:07;0.40;;;0.40;;
69900;SDS011;57183;50.930;5.406;2023-07-29T07:46:33;1.17;;;0.65;;
69900;SDS011;57183;50.930;5.406;2023-07-29T07:48:59;0.77;;;0.50;;
69900;SDS011;57183;50.930;5.406;2023-07-29T07:51:24;3.03;;;0.80;;
69900;SDS011;57183;50.930;5.406;2023-07-29T07:53:50;1.17;;;0.70;;
69900;SDS011;57183;50.930;5.406;2023-07-29T07:56:16;1.83;;;0.60;;
69900;SDS011;57183;50.930;5.406;2023-07-29T07:58:41;2.35;;;0.50;;
69900;SDS011;57183;50.930;5.406;2023-07-29T08:01:07;1.35;;;0.60;;
69900;SDS011;57183;50.930;5.406;2023-07-29T08:03:34;2.88;;;0.50;;
69900;SDS011;57183;50.930;5.406;2023-07-29T08:06:01;1.33;;;0.73;;
69900;SDS011;57183;50.930;5.406;2023-07-29T08:08:27;1.50;;;0.70;;
69900;SDS011;57183;50.930;5.406;2023-07-29T08:10:53;5.70;;;0.95;;
69900;SDS011;57183;50.930;5.406;2023-07-29T08:13:21;1.05;;;0.73;;
69900;SDS011;57183;50.930;5.406;2023-07-29T08:15:48;1.13;;;0.70;;
69900;SDS011;57183;50.930;5.406;2023-07-29T08:18:14;2.55;;;1.00;;
69900;SDS011;57183;50.930;5.406;2023-07-29T08:20:41;1.98;;;0.57;;
69900;SDS011;57183;50.930;5.406;2023-07-29T08:23:07;0.98;;;0.63;;
69900;SDS011;57183;50.930;5.406;2023-07-29T08:25:32;2.88;;;0.90;;
69900;SDS011;57183;50.930;5.406;2023-07-29T08:27:58;3.92;;;0.70;;
69900;SDS011;57183;50.930;5.406;2023-07-29T08:30:24;0.90;;;0.73;;
69900;SDS011;57183;50.930;5.406;2023-07-29T08:32:49;0.68;;;0.55;;
69900;SDS011;57183;50.930;5.406;2023-07-29T08:35:15;1.15;;;0.60;;
69900;SDS011;57183;50.930;5.406;2023-07-29T08:37:41;2.65;;;0.75;;
69900;SDS011;57183;50.930;5.406;2023-07-29T08:40:06;0.57;;;0.40;;
69900;SDS011;57183;50.930;5.406;2023-07-29T08:42:33;1.20;;;0.70;;
69900;SDS011;57183;50.930;5.406;2023-07-29T08:45:06;1.70;;;0.50;;
69900;SDS011;57183;50.930;5.406;2023-07-29T08:47:36;1.75;;;0.70;;
69900;SDS011;57183;50.930;5.406;2023-07-29T08:50:02;0.60;;;0.50;;
69900;SDS011;57183;50.930;5.406;2023-07-29T08:52:29;2.17;;;0.60;;
69900;SDS011;57183;50.930;5.406;2023-07-29T08:54:57;0.60;;;0.60;;
69900;SDS011;57183;50.930;5.406;2023-07-29T08:57:23;2.35;;;0.65;;
69900;SDS011;57183;50.930;5.406;2023-07-29T08:59:49;1.02;;;0.80;;
69900;SDS011;57183;50.930;5.406;2023-07-29T09:02:15;1.05;;;0.60;;
69900;SDS011;57183;50.930;5.406;2023-07-29T09:04:40;3.92;;;0.60;;
69900;SDS011;57183;50.930;5.406;2023-07-29T09:07:07;2.08;;;0.75;;
69900;SDS011;57183;50.930;5.406;2023-07-29T09:09:33;1.42;;;1.00;;
69900;SDS011;57183;50.930;5.406;2023-07-29T09:11:59;1.13;;;0.90;;
69900;SDS011;57183;50.930;5.406;2023-07-29T09:14:25;1.55;;;0.60;;
69900;SDS011;57183;50.930;5.406;2023-07-29T09:16:51;3.20;;;0.60;;
69900;SDS011;57183;50.930;5.406;2023-07-29T09:19:18;1.00;;;0.68;;
69900;SDS011;57183;50.930;5.406;2023-07-29T09:21:45;1.30;;;0.80;;
69900;SDS011;57183;50.930;5.406;2023-07-29T09:24:12;2.05;;;0.90;;
69900;SDS011;57183;50.930;5.406;2023-07-29T09:26:40;1.00;;;0.82;;
69900;SDS011;57183;50.930;5.406;2023-07-29T09:29:14;2.88;;;1.20;;
69900;SDS011;57183;50.930;5.406;2023-07-29T09:31:40;1.42;;;0.70;;
69900;SDS011;57183;50.930;5.406;2023-07-29T09:34:05;0.50;;;0.50;;
69900;SDS011;57183;50.930;5.406;2023-07-29T09:36:31;0.93;;;0.57;;
69900;SDS011;57183;50.930;5.406;2023-07-29T09:38:58;0.73;;;0.50;;
69900;SDS011;57183;50.930;5.406;2023-07-29T09:41:25;2.03;;;0.80;;
69900;SDS011;57183;50.930;5.406;2023-07-29T09:43:58;1.75;;;0.80;;
69900;SDS011;57183;50.930;5.406;2023-07-29T09:46:31;2.22;;;0.65;;
69900;SDS011;57183;50.930;5.406;2023-07-29T09:48:59;7.03;;;0.90;;
69900;SDS011;57183;50.930;5.406;2023-07-29T09:51:27;2.75;;;0.75;;
69900;SDS011;57183;50.930;5.406;2023-07-29T09:53:53;5.88;;;0.93;;
69900;SDS011;57183;50.930;5.406;2023-07-29T09:56:25;6.35;;;0.73;;
69900;SDS011;57183;50.930;5.406;2023-07-29T09:58:51;1.35;;;0.95;;
69900;SDS011;57183;50.930;5.406;2023-07-29T10:01:17;3.28;;;0.80;;
69900;SDS011;57183;50.930;5.406;2023-07-29T10:03:44;1.10;;;0.73;;
69900;SDS011;57183;50.930;5.406;2023-07-29T10:06:09;1.17;;;0.70;;
69900;SDS011;57183;50.930;5.406;2023-07-29T10:08:36;1.00;;;0.60;;
69900;SDS011;57183;50.930;5.406;2023-07-29T10:11:08;1.13;;;0.50;;
69900;SDS011;57183;50.930;5.406;2023-07-29T10:13:36;1.92;;;1.35;;
69900;SDS011;57183;50.930;5.406;2023-07-29T10:16:03;0.90;;;0.65;;
69900;SDS011;57183;50.930;5.406;2023-07-29T10:18:30;0.73;;;0.63;;
69900;SDS011;57183;50.930;5.406;2023-07-29T10:20:56;1.30;;;0.60;;
69900;SDS011;57183;50.930;5.406;2023-07-29T10:23:24;1.80;;;0.70;;
69900;SDS011;57183;50.930;5.406;2023-07-29T10:28:33;1.02;;;0.63;;
69900;SDS011;57183;50.930;5.406;2023-07-29T10:31:04;1.00;;;0.70;;
69900;SDS011;57183;50.930;5.406;2023-07-29T10:33:30;4.32;;;0.77;;
69900;SDS011;57183;50.930;5.406;2023-07-29T10:35:58;1.65;;;0.70;;
69900;SDS011;57183;50.930;5.406;2023-07-29T10:38:25;0.80;;;0.55;;
69900;SDS011;57183;50.930;5.406;2023-07-29T10:40:52;3.05;;;0.60;;
69900;SDS011;57183;50.930;5.406;2023-07-29T10:43:42;0.68;;;0.50;;
69900;SDS011;57183;50.930;5.406;2023-07-29T10:48:44;3.55;;;0.75;;
69900;SDS011;57183;50.930;5.406;2023-07-29T10:51:28;0.90;;;0.70;;
69900;SDS011;57183;50.930;5.406;2023-07-29T10:54:11;0.80;;;0.55;;
69900;SDS011;57183;50.930;5.406;2023-07-29T10:56:57;1.40;;;0.52;;
69900;SDS011;57183;50.930;5.406;2023-07-29T10:59:32;0.57;;;0.40;;
69900;SDS011;57183;50.930;5.406;2023-07-29T11:01:59;0.85;;;0.57;;
69900;SDS011;57183;50.930;5.406;2023-07-29T11:04:26;1.67;;;0.70;;
69900;SDS011;57183;50.930;5.406;2023-07-29T11:15:25;1.30;;;0.73;;
69900;SDS011;57183;50.930;5.406;2023-07-29T11:17:52;1.27;;;0.82;;
69900;SDS011;57183;50.930;5.406;2023-07-29T11:20:20;1.33;;;0.80;;
69900;SDS011;57183;50.930;5.406;2023-07-29T11:22:52;2.38;;;0.63;;
69900;SDS011;57183;50.930;5.406;2023-07-29T11:25:18;2.50;;;1.77;;
69900;SDS011;57183;50.930;5.406;2023-07-29T11:27:44;0.98;;;0.85;;
69900;SDS011;57183;50.930;5.406;2023-07-29T11:30:12;0.82;;;0.60;;
69900;SDS011;57183;50.930;5.406;2023-07-29T11:32:40;1.67;;;0.90;;
69900;SDS011;57183;50.930;5.406;2023-07-29T11:35:07;1.83;;;1.05;;
69900;SDS011;57183;50.930;5.406;2023-07-29T11:37:36;1.75;;;1.20;;
69900;SDS011;57183;50.930;5.406;2023-07-29T11:40:02;1.38;;;1.05;;
69900;SDS011;57183;50.930;5.406;2023-07-29T11:42:31;1.30;;;0.93;;
69900;SDS011;57183;50.930;5.406;2023-07-29T11:44:58;6.30;;;1.15;;
69900;SDS011;57183;50.930;5.406;2023-07-29T11:47:24;4.50;;;1.13;;
69900;SDS011;57183;50.930;5.406;2023-07-29T11:49:49;2.08;;;0.80;;
69900;SDS011;57183;50.930;5.406;2023-07-29T11:52:15;3.90;;;1.20;;
69900;SDS011;57183;50.930;5.406;2023-07-29T11:54:45;3.30;;;1.40;;
69900;SDS011;57183;50.930;5.406;2023-07-29T11:57:14;1.25;;;1.13;;
69900;SDS011;57183;50.930;5.406;2023-07-29T11:59:41;1.65;;;1.45;;
69900;SDS011;57183;50.930;5.406;2023-07-29T12:02:14;2.67;;;1.23;;
69900;SDS011;57183;50.930;5.406;2023-07-29T12:04:43;3.67;;;1.38;;
69900;SDS011;57183;50.930;5.406;2023-07-29T12:07:10;4.07;;;1.48;;
69900;SDS011;57183;50.930;5.406;2023-07-29T12:09:37;1.58;;;1.45;;
69900;SDS011;57183;50.930;5.406;2023-07-29T12:12:03;2.65;;;2.15;;
69900;SDS011;57183;50.930;5.406;2023-07-29T12:14:30;1.60;;;1.40;;
69900;SDS011;57183;50.930;5.406;2023-07-29T12:16:56;3.13;;;1.70;;
69900;SDS011;57183;50.930;5.406;2023-07-29T12:19:30;3.10;;;1.50;;
69900;SDS011;57183;50.930;5.406;2023-07-29T12:22:00;2.50;;;1.47;;
69900;SDS011;57183;50.930;5.406;2023-07-29T12:24:27;2.17;;;0.93;;
69900;SDS011;57183;50.930;5.406;2023-07-29T12:26:54;2.03;;;1.40;;
69900;SDS011;57183;50.930;5.406;2023-07-29T12:29:19;2.70;;;1.50;;
69900;SDS011;57183;50.930;5.406;2023-07-29T12:31:45;2.78;;;1.17;;
69900;SDS011;57183;50.930;5.406;2023-07-29T12:34:20;3.03;;;1.70;;
69900;SDS011;57183;50.930;5.406;2023-07-29T12:36:50;3.63;;;1.33;;
69900;SDS011;57183;50.930;5.406;2023-07-29T12:39:20;1.10;;;0.85;;
69900;SDS011;57183;50.930;5.406;2023-07-29T12:41:51;3.05;;;1.35;;
69900;SDS011;57183;50.930;5.406;2023-07-29T12:44:19;1.95;;;1.63;;
69900;SDS011;57183;50.930;5.406;2023-07-29T12:46:45;2.63;;;1.63;;
69900;SDS011;57183;50.930;5.406;2023-07-29T12:49:11;2.80;;;1.50;;
69900;SDS011;57183;50.930;5.406;2023-07-29T12:51:37;2.05;;;1.52;;
69900;SDS011;57183;50.930;5.406;2023-07-29T12:54:03;1.75;;;1.33;;
69900;SDS011;57183;50.930;5.406;2023-07-29T12:56:30;4.18;;;1.80;;
69900;SDS011;57183;50.930;5.406;2023-07-29T12:58:57;2.35;;;2.00;;
69900;SDS011;57183;50.930;5.406;2023-07-29T13:01:24;2.55;;;1.85;;
69900;SDS011;57183;50.930;5.406;2023-07-29T13:03:50;1.55;;;1.25;;
69900;SDS011;57183;50.930;5.406;2023-07-29T13:06:16;4.05;;;1.58;;
69900;SDS011;57183;50.930;5.406;2023-07-29T13:08:42;6.72;;;1.42;;
69900;SDS011;57183;50.930;5.406;2023-07-29T13:11:08;2.40;;;1.52;;
69900;SDS011;57183;50.930;5.406;2023-07-29T13:13:34;2.15;;;1.35;;
69900;SDS011;57183;50.930;5.406;2023-07-29T13:16:00;2.47;;;1.55;;
69900;SDS011;57183;50.930;5.406;2023-07-29T13:18:26;3.42;;;1.50;;
69900;SDS011;57183;50.930;5.406;2023-07-29T13:20:51;2.22;;;1.38;;
69900;SDS011;57183;50.930;5.406;2023-07-29T13:23:17;1.38;;;1.25;;
69900;SDS011;57183;50.930;5.406;2023-07-29T13:25:43;2.03;;;1.25;;
69900;SDS011;57183;50.930;5.406;2023-07-29T13:28:09;1.50;;;1.20;;
69900;SDS011;57183;50.930;5.406;2023-07-29T13:30:35;1.77;;;1.30;;
69900;SDS011;57183;50.930;5.406;2023-07-29T13:33:01;2.83;;;1.60;;
69900;SDS011;57183;50.930;5.406;2023-07-29T13:35:27;2.17;;;1.40;;
69900;SDS011;57183;50.930;5.406;2023-07-29T13:37:53;2.33;;;1.70;;
69900;SDS011;57183;50.930;5.406;2023-07-29T13:40:19;2.47;;;1.63;;
69900;SDS011;57183;50.930;5.406;2023-07-29T13:42:44;1.90;;;1.40;;
69900;SDS011;57183;50.930;5.406;2023-07-29T13:45:10;3.17;;;1.73;;
69900;SDS011;57183;50.930;5.406;2023-07-29T13:47:36;1.80;;;1.70;;
69900;SDS011;57183;50.930;5.406;2023-07-29T13:50:02;1.77;;;1.67;;
69900;SDS011;57183;50.930;5.406;2023-07-29T13:52:28;2.58;;;2.25;;
69900;SDS011;57183;50.930;5.406;2023-07-29T13:54:54;3.17;;;2.38;;
69900;SDS011;57183;50.930;5.406;2023-07-29T13:57:19;2.55;;;2.35;;
69900;SDS011;57183;50.930;5.406;2023-07-29T13:59:45;2.97;;;2.17;;
69900;SDS011;57183;50.930;5.406;2023-07-29T14:02:11;2.42;;;2.22;;
69900;SDS011;57183;50.930;5.406;2023-07-29T14:04:36;2.17;;;1.70;;
69900;SDS011;57183;50.930;5.406;2023-07-29T14:07:02;1.80;;;1.55;;
69900;SDS011;57183;50.930;5.406;2023-07-29T14:09:28;2.85;;;1.48;;
69900;SDS011;57183;50.930;5.406;2023-07-29T14:11:54;2.65;;;2.13;;
69900;SDS011;57183;50.930;5.406;2023-07-29T14:14:20;4.15;;;1.33;;
69900;SDS011;57183;50.930;5.406;2023-07-29T14:16:45;1.38;;;1.20;;
69900;SDS011;57183;50.930;5.406;2023-07-29T14:19:12;1.50;;;1.10;;
69900;SDS011;57183;50.930;5.406;2023-07-29T14:21:38;1.08;;;0.98;;
69900;SDS011;57183;50.930;5.406;2023-07-29T14:24:04;1.17;;;1.00;;
69900;SDS011;57183;50.930;5.406;2023-07-29T14:26:30;1.25;;;1.15;;
69900;SDS011;57183;50.930;5.406;2023-07-29T14:28:55;1.88;;;0.88;;
69900;SDS011;57183;50.930;5.406;2023-07-29T14:31:21;0.95;;;0.80;;
69900;SDS011;57183;50.930;5.406;2023-07-29T14:33:47;1.17;;;0.80;;
69900;SDS011;57183;50.930;5.406;2023-07-29T14:36:14;2.05;;;1.10;;
69900;SDS011;57183;50.930;5.406;2023-07-29T14:38:40;1.02;;;0.95;;
69900;SDS011;57183;50.930;5.406;2023-07-29T14:41:05;2.97;;;0.90;;
69900;SDS011;57183;50.930;5.406;2023-07-29T14:43:31;2.22;;;1.05;;
69900;SDS011;57183;50.930;5.406;2023-07-29T14:45:57;3.28;;;0.90;;
69900;SDS011;57183;50.930;5.406;2023-07-29T14:48:23;0.80;;;0.75;;
69900;SDS011;57183;50.930;5.406;2023-07-29T14:50:48;1.85;;;1.02;;
69900;SDS011;57183;50.930;5.406;2023-07-29T14:53:14;1.20;;;0.63;;
69900;SDS011;57183;50.930;5.406;2023-07-29T14:55:40;0.55;;;0.50;;
69900;SDS011;57183;50.930;5.406;2023-07-29T14:58:05;0.60;;;0.60;;
69900;SDS011;57183;50.930;5.406;2023-07-29T15:00:31;2.25;;;0.68;;
69900;SDS011;57183;50.930;5.406;2023-07-29T15:02:58;1.77;;;1.10;;